createdAt,value
2018-12-17T00:00:37.129Z,68.07
2018-12-17T00:03:09.961Z,69.10
2018-12-17T00:05:42.821Z,73.77
2018-12-17T00:08:18.012Z,71.27
2018-12-17T00:10:48.892Z,70.20
2018-12-17T00:13:19.943Z,70.77
2018-12-17T00:15:50.640Z,68.90
2018-12-17T00:18:28.365Z,64.67
2018-12-17T00:21:04.854Z,63.43
2018-12-17T00:23:39.445Z,61.47
2018-12-17T00:26:16.129Z,63.27
2018-12-17T00:28:50.807Z,62.53
2018-12-17T00:31:25.811Z,58.50
2018-12-17T00:34:08.633Z,63.87
2018-12-17T00:36:50.339Z,52.60
2018-12-17T00:39:29.002Z,52.57
2018-12-17T00:42:10.538Z,52.93
2018-12-17T00:44:48.643Z,46.17
2018-12-17T00:47:33.636Z,45.00
2018-12-17T00:50:15.167Z,47.40
2018-12-17T00:52:52.648Z,45.13
2018-12-17T00:55:32.049Z,49.40
2018-12-17T00:58:06.200Z,49.53
2018-12-17T01:00:36.877Z,48.30
2018-12-17T01:03:08.000Z,53.60
2018-12-17T01:05:38.694Z,47.23
2018-12-17T01:08:09.485Z,49.43
2018-12-17T01:10:40.194Z,41.87
2018-12-17T01:13:11.100Z,52.03
2018-12-17T01:15:41.707Z,54.77
2018-12-17T01:18:12.907Z,46.67
2018-12-17T01:20:43.662Z,67.00
2018-12-17T01:23:14.314Z,60.23
2018-12-17T01:25:44.969Z,59.13
2018-12-17T01:28:21.984Z,53.57
2018-12-17T01:30:48.407Z,70.60
2018-12-17T01:33:19.044Z,81.40
2018-12-17T01:35:49.786Z,79.30
2018-12-17T01:38:20.415Z,71.07
2018-12-17T01:40:51.122Z,72.97
2018-12-17T01:43:21.775Z,77.13
2018-12-17T01:45:52.472Z,91.40
2018-12-17T01:48:24.435Z,62.47
2018-12-17T01:50:55.191Z,75.50
2018-12-17T01:53:25.981Z,53.80
2018-12-17T01:55:56.739Z,54.50
2018-12-17T01:58:29.365Z,60.57
2018-12-17T02:01:00.094Z,46.87
2018-12-17T02:03:35.254Z,50.53
2018-12-17T02:06:05.899Z,46.67
2018-12-17T02:08:36.840Z,52.27
2018-12-17T02:11:11.484Z,52.13
2018-12-17T02:13:49.021Z,51.27
2018-12-17T02:16:21.248Z,50.20
2018-12-17T02:18:52.542Z,42.87
2018-12-17T02:21:26.141Z,45.37
2018-12-17T02:23:56.780Z,45.23
2018-12-17T02:26:28.255Z,46.27
2018-12-17T02:28:59.611Z,40.07
2018-12-17T02:31:30.299Z,49.60
2018-12-17T02:34:01.005Z,44.93
2018-12-17T02:36:33.655Z,44.20
2018-12-17T02:39:09.461Z,43.97
2018-12-17T02:41:41.778Z,42.60
2018-12-17T02:44:12.794Z,45.33
2018-12-17T02:46:44.142Z,50.37
2018-12-17T02:49:15.303Z,44.27
2018-12-17T02:51:45.984Z,45.47
2018-12-17T02:54:16.735Z,47.60
2018-12-17T02:56:47.343Z,51.47
2018-12-17T02:59:18.009Z,45.33
2018-12-17T03:01:49.427Z,52.63
2018-12-17T03:04:20.824Z,42.97
2018-12-17T03:06:51.528Z,40.23
2018-12-17T03:09:23.916Z,38.43
2018-12-17T03:11:54.543Z,40.50
2018-12-17T03:14:25.192Z,35.47
2018-12-17T03:16:55.908Z,40.47
2018-12-17T03:19:26.630Z,43.33
2018-12-17T03:21:57.259Z,38.63
2018-12-17T03:24:27.932Z,36.87
2018-12-17T03:26:58.563Z,34.93
2018-12-17T03:29:29.800Z,32.77
2018-12-17T03:32:00.698Z,42.87
2018-12-17T03:34:32.746Z,42.47
2018-12-17T03:37:05.506Z,39.03
2018-12-17T03:39:36.562Z,38.10
2018-12-17T03:42:07.342Z,41.77
2018-12-17T03:44:38.414Z,39.67
2018-12-17T03:47:15.615Z,36.43
2018-12-17T03:49:46.759Z,35.60
2018-12-17T03:52:17.481Z,35.87
2018-12-17T03:54:48.202Z,35.33
2018-12-17T03:57:18.861Z,40.60
2018-12-17T03:59:49.529Z,44.00
2018-12-17T04:02:20.226Z,39.53
2018-12-17T04:04:50.846Z,41.13
2018-12-17T04:07:21.591Z,42.00
2018-12-17T04:09:52.493Z,37.17
2018-12-17T04:12:25.021Z,32.20
2018-12-17T04:14:55.690Z,34.87
2018-12-17T04:17:26.499Z,32.07
2018-12-17T04:19:57.162Z,33.93
2018-12-17T04:22:27.842Z,33.27
2018-12-17T04:24:59.599Z,33.30
2018-12-17T04:27:30.284Z,32.53
2018-12-17T04:30:06.397Z,37.13
2018-12-17T04:32:37.164Z,29.07
2018-12-17T04:35:08.112Z,31.57
2018-12-17T04:37:39.142Z,35.43
2018-12-17T04:40:11.328Z,31.83
2018-12-17T04:42:42.561Z,31.03
2018-12-17T04:45:13.294Z,30.90
2018-12-17T04:47:43.997Z,33.33
2018-12-17T04:50:14.675Z,37.60
2018-12-17T04:52:45.261Z,36.60
2018-12-17T04:55:15.985Z,36.10
2018-12-17T04:57:47.811Z,35.53
2018-12-17T05:00:18.678Z,34.63
2018-12-17T05:02:49.351Z,32.40
2018-12-17T05:05:20.661Z,35.10
2018-12-17T05:07:51.429Z,34.90
2018-12-17T05:10:22.704Z,36.23
2018-12-17T05:12:53.390Z,31.20
2018-12-17T05:15:24.474Z,37.63
2018-12-17T05:18:03.316Z,31.00
2018-12-17T05:20:34.015Z,32.17
2018-12-17T05:23:06.203Z,30.97
2018-12-17T05:25:37.187Z,29.77
2018-12-17T05:28:09.110Z,31.00
2018-12-17T05:30:39.888Z,29.37
2018-12-17T05:33:10.768Z,38.90
2018-12-17T05:35:41.417Z,32.77
2018-12-17T05:38:12.246Z,39.63
2018-12-17T05:40:43.072Z,36.37
2018-12-17T05:43:13.701Z,36.50
2018-12-17T05:45:44.807Z,29.50
2018-12-17T05:48:15.543Z,32.80
2018-12-17T05:50:46.217Z,32.80
2018-12-17T05:53:16.977Z,30.73
2018-12-17T05:55:48.223Z,28.93
2018-12-17T05:58:18.855Z,36.87
2018-12-17T06:00:49.516Z,34.90
2018-12-17T06:03:20.153Z,30.50
2018-12-17T06:05:50.839Z,34.67
2018-12-17T06:08:21.502Z,29.70
2018-12-17T06:10:52.170Z,33.90
2018-12-17T06:13:22.833Z,30.70
2018-12-17T06:15:53.550Z,30.17
2018-12-17T06:18:24.259Z,32.97
2018-12-17T06:20:55.237Z,39.23
2018-12-17T06:23:25.931Z,31.10
2018-12-17T06:25:56.569Z,30.60
2018-12-17T06:28:27.896Z,32.60
2018-12-17T06:30:58.609Z,30.73
2018-12-17T06:33:29.321Z,31.50
2018-12-17T06:36:03.556Z,32.07
2018-12-17T06:38:34.536Z,27.83
2018-12-17T06:41:06.335Z,32.70
2018-12-17T06:43:37.831Z,36.30
2018-12-17T06:46:09.418Z,40.67
2018-12-17T06:48:40.913Z,33.97
2018-12-17T06:51:11.726Z,34.13
2018-12-17T06:53:42.575Z,30.90
2018-12-17T06:56:13.507Z,37.20
2018-12-17T06:58:44.135Z,38.43
2018-12-17T07:01:15.684Z,44.27
2018-12-17T07:03:46.370Z,38.67
2018-12-17T07:06:18.585Z,42.47
2018-12-17T07:08:50.700Z,33.23
2018-12-17T07:11:21.709Z,35.37
2018-12-17T07:13:52.451Z,40.23
2018-12-17T07:16:23.082Z,33.83
2018-12-17T07:18:53.994Z,31.97
2018-12-17T07:21:24.639Z,40.50
2018-12-17T07:23:58.892Z,35.03
2018-12-17T07:26:29.089Z,36.00
2018-12-17T07:28:59.738Z,30.80
2018-12-17T07:31:30.843Z,35.70
2018-12-17T07:34:01.924Z,36.57
2018-12-17T07:36:32.706Z,45.17
2018-12-17T07:39:08.156Z,42.40
2018-12-17T07:41:39.894Z,47.90
2018-12-17T07:44:10.691Z,41.77
2018-12-17T07:46:41.317Z,42.33
2018-12-17T07:49:11.988Z,38.07
2018-12-17T07:51:42.645Z,39.33
2018-12-17T07:54:13.567Z,37.87
2018-12-17T07:56:44.336Z,38.60
2018-12-17T07:59:15.024Z,43.43
2018-12-17T08:01:45.705Z,40.90
2018-12-17T08:04:16.921Z,44.90
2018-12-17T08:06:47.878Z,37.83
2018-12-17T08:09:18.660Z,41.80
2018-12-17T08:11:49.354Z,36.40
2018-12-17T08:14:20.103Z,32.80
2018-12-17T08:16:52.014Z,31.63
2018-12-17T08:19:22.675Z,30.47
2018-12-17T08:21:53.344Z,28.77
2018-12-17T08:24:24.470Z,26.30
2018-12-17T08:27:09.640Z,23.27
2018-12-17T08:29:40.357Z,25.23
2018-12-17T08:32:11.378Z,22.73
2018-12-17T08:34:42.017Z,24.50
2018-12-17T08:37:12.686Z,21.43
2018-12-17T08:39:43.428Z,21.60
2018-12-17T08:42:14.121Z,22.47
2018-12-17T08:44:44.820Z,24.30
2018-12-17T08:47:15.526Z,21.70
2018-12-17T08:49:46.143Z,18.70
2018-12-17T08:52:17.866Z,20.63
2018-12-17T08:54:48.805Z,18.40
2018-12-17T08:57:19.482Z,18.40
2018-12-17T08:59:50.094Z,19.87
2018-12-17T09:02:20.816Z,20.47
2018-12-17T09:04:52.134Z,17.43
2018-12-17T09:07:22.780Z,20.70
2018-12-17T09:09:53.462Z,27.70
2018-12-17T09:12:24.071Z,47.40
2018-12-17T09:14:54.775Z,38.20
2018-12-17T09:17:25.508Z,30.37
2018-12-17T09:19:56.294Z,28.43
2018-12-17T09:22:26.953Z,38.07
2018-12-17T09:24:57.685Z,35.47
2018-12-17T09:27:28.371Z,38.63
2018-12-17T09:29:58.976Z,27.80
2018-12-17T09:32:30.254Z,22.77
2018-12-17T09:35:00.912Z,18.77
2018-12-17T09:37:34.718Z,15.43
2018-12-17T09:40:09.255Z,15.07
2018-12-17T09:42:39.952Z,10.90
2018-12-17T09:45:10.719Z,16.10
2018-12-17T09:47:41.402Z,17.57
2018-12-17T09:50:12.172Z,17.93
2018-12-17T09:52:42.760Z,14.30
2018-12-17T09:55:13.643Z,36.37
2018-12-17T09:57:44.305Z,20.65
2018-12-17T10:00:15.548Z,14.73
2018-12-17T10:02:46.916Z,14.47
2018-12-17T10:05:17.552Z,14.53
2018-12-17T10:07:48.247Z,18.62
2018-12-17T10:10:18.843Z,16.40
2018-12-17T10:12:49.541Z,15.43
2018-12-17T10:15:20.773Z,17.73
2018-12-17T10:17:51.507Z,13.13
2018-12-17T10:20:22.263Z,16.40
2018-12-17T10:22:53.089Z,14.33
2018-12-17T10:25:23.879Z,12.40
2018-12-17T10:27:54.599Z,15.20
2018-12-17T10:30:32.204Z,15.15
2018-12-17T10:32:57.903Z,12.03
2018-12-17T10:35:29.355Z,17.70
2018-12-17T10:38:00.067Z,17.15
2018-12-17T10:40:36.088Z,18.95
2018-12-17T10:43:12.992Z,16.42
2018-12-17T10:45:43.975Z,14.95
2018-12-17T10:48:16.221Z,15.25
2018-12-17T10:50:47.031Z,13.98
2018-12-17T10:53:17.665Z,15.80
2018-12-17T10:55:48.366Z,14.90
2018-12-17T10:58:19.750Z,14.87
2018-12-17T11:00:56.071Z,19.17
2018-12-17T11:03:41.334Z,14.25
2018-12-17T11:06:17.183Z,16.73
2018-12-17T11:08:49.950Z,16.93
2018-12-17T11:11:20.838Z,21.25
2018-12-17T11:13:52.183Z,15.53
2018-12-17T11:16:22.948Z,21.48
2018-12-17T11:18:54.140Z,22.00
2018-12-17T11:21:25.034Z,20.08
2018-12-17T11:23:56.823Z,15.45
2018-12-17T11:26:27.542Z,17.73
2018-12-17T11:28:59.255Z,12.85
2018-12-17T11:31:31.616Z,16.25
2018-12-17T11:34:06.286Z,16.70
2018-12-17T11:36:36.976Z,17.02
2018-12-17T11:39:10.457Z,18.67
2018-12-17T11:41:42.363Z,17.48
2018-12-17T11:44:16.525Z,21.42
2018-12-17T11:46:48.728Z,16.95
2018-12-17T11:49:19.491Z,24.10
2018-12-17T11:51:50.126Z,22.48
2018-12-17T11:54:20.834Z,22.40
2018-12-17T11:59:06.382Z,22.35
2018-12-17T12:01:39.402Z,16.17
2018-12-17T12:04:11.204Z,19.00
2018-12-17T12:06:42.306Z,20.77
2018-12-17T12:09:15.110Z,20.37
2018-12-17T12:11:45.769Z,21.50
2018-12-17T12:14:16.526Z,18.50
2018-12-17T12:16:47.280Z,16.40
2018-12-17T12:19:17.927Z,20.12
2018-12-17T12:21:48.674Z,20.90
2018-12-17T12:24:19.370Z,24.25
2018-12-17T12:26:50.435Z,20.55
2018-12-17T12:29:21.186Z,18.50
2018-12-17T12:31:51.986Z,22.00
2018-12-17T12:34:22.879Z,23.15
2018-12-17T12:36:53.544Z,21.55
2018-12-17T12:39:24.560Z,23.35
2018-12-17T12:41:55.605Z,20.30
2018-12-17T12:44:26.314Z,28.85
2018-12-17T12:46:57.029Z,22.15
2018-12-17T12:49:27.586Z,23.73
2018-12-17T12:51:58.477Z,20.97
2018-12-17T12:54:29.135Z,22.60
2018-12-17T12:57:00.745Z,18.05
2018-12-17T12:59:31.705Z,21.97
2018-12-17T13:02:04.691Z,23.67
2018-12-17T13:04:36.288Z,21.05
2018-12-17T13:07:07.205Z,25.55
2018-12-17T13:09:37.925Z,21.25
2018-12-17T13:12:08.569Z,22.58
2018-12-17T13:14:39.858Z,27.00
2018-12-17T13:17:17.562Z,23.25
2018-12-17T13:19:48.176Z,22.85
2018-12-17T13:22:19.954Z,18.27
2018-12-17T13:24:52.766Z,16.82
2018-12-17T13:27:23.966Z,17.25
2018-12-17T13:29:54.636Z,19.05
2018-12-17T13:32:25.199Z,20.20
2018-12-17T13:34:55.809Z,17.00
2018-12-17T13:37:26.390Z,15.85
2018-12-17T13:39:56.975Z,16.77
2018-12-17T13:42:33.922Z,15.50
2018-12-17T13:45:08.263Z,15.55
2018-12-17T13:47:44.698Z,15.93
2018-12-17T13:53:37.241Z,19.37
2018-12-17T13:56:08.099Z,20.08
2018-12-17T13:58:38.830Z,16.48
2018-12-17T14:01:09.477Z,15.18
2018-12-17T14:03:41.265Z,17.25
2018-12-17T14:06:19.983Z,15.05
2018-12-17T14:08:51.172Z,19.62
2018-12-17T14:11:24.064Z,21.00
2018-12-17T14:13:55.383Z,23.60
2018-12-17T14:16:31.886Z,16.55
2018-12-17T14:19:17.478Z,17.32
2018-12-17T14:21:53.490Z,20.60
2018-12-17T14:24:25.048Z,20.30
2018-12-17T14:26:55.791Z,21.77
2018-12-17T14:29:26.447Z,27.17
2018-12-17T14:31:57.227Z,22.17
2018-12-17T14:34:28.131Z,16.52
2018-12-17T14:36:58.958Z,19.82
2018-12-17T14:39:29.679Z,22.32
2018-12-17T14:42:00.929Z,23.62
2018-12-17T14:44:35.124Z,22.13
2018-12-17T14:47:08.388Z,25.60
2018-12-17T14:49:39.014Z,26.80
2018-12-17T14:52:09.863Z,24.43
2018-12-17T14:54:40.486Z,21.55
2018-12-17T14:57:11.169Z,40.40
2018-12-17T14:59:41.903Z,26.80
2018-12-17T15:02:14.657Z,23.70
2018-12-17T15:04:45.463Z,27.05
2018-12-17T15:07:16.166Z,21.50
2018-12-17T15:09:47.416Z,22.35
2018-12-17T15:12:19.253Z,33.55
2018-12-17T15:14:49.845Z,27.40
2018-12-17T15:17:20.560Z,28.47
2018-12-17T15:19:51.670Z,29.48
2018-12-17T15:22:22.419Z,48.63
2018-12-17T15:24:53.193Z,37.00
2018-12-17T15:27:23.869Z,33.18
2018-12-17T15:29:54.644Z,32.63
2018-12-17T15:32:25.380Z,32.78
2018-12-17T15:34:56.113Z,27.35
2018-12-17T15:37:27.871Z,31.62
2018-12-17T15:39:59.100Z,25.10
2018-12-17T15:42:29.849Z,31.90
2018-12-17T15:45:00.586Z,25.32
2018-12-17T15:47:31.687Z,30.57
2018-12-17T15:50:06.247Z,32.67
2018-12-17T15:52:36.938Z,30.60
2018-12-17T15:55:08.702Z,39.80
2018-12-17T15:57:39.382Z,32.98
2018-12-17T16:00:13.207Z,29.82
2018-12-17T16:02:44.066Z,33.73
2018-12-17T16:05:14.726Z,37.95
2018-12-17T16:07:45.770Z,35.13
2018-12-17T16:10:17.518Z,42.20
2018-12-17T16:12:48.332Z,38.25
2018-12-17T16:17:55.059Z,31.42
2018-12-17T16:20:25.745Z,21.62
2018-12-17T16:22:56.433Z,23.20
2018-12-17T16:25:27.172Z,21.27
2018-12-17T16:27:57.847Z,26.42
2018-12-17T16:30:28.751Z,29.02
2018-12-17T16:32:59.472Z,25.82
2018-12-17T16:35:30.461Z,23.87
2018-12-17T16:38:01.156Z,25.48
2018-12-17T16:40:35.305Z,28.62
2018-12-17T16:43:06.529Z,27.17
2018-12-17T16:45:37.287Z,22.17
2018-12-17T16:48:09.066Z,31.30
2018-12-17T16:50:40.099Z,24.25
2018-12-17T16:53:11.177Z,24.63
2018-12-17T16:55:41.790Z,22.85
2018-12-17T16:58:12.499Z,25.88
2018-12-17T17:00:45.291Z,24.85
2018-12-17T17:03:15.979Z,24.98
2018-12-17T17:05:46.676Z,29.90
2018-12-17T17:08:18.309Z,27.45
2018-12-17T17:10:48.998Z,24.82
2018-12-17T17:13:19.716Z,35.67
2018-12-17T17:15:50.484Z,51.18
2018-12-17T17:18:21.128Z,43.23
2018-12-17T17:20:51.847Z,200.93
2018-12-17T17:23:23.950Z,118.40
2018-12-17T17:25:54.695Z,60.70
2018-12-17T17:28:25.341Z,54.55
2018-12-17T17:30:57.076Z,55.07
2018-12-17T17:33:27.809Z,61.93
2018-12-17T17:35:58.555Z,60.67
2018-12-17T17:38:29.223Z,58.63
2018-12-17T17:41:00.221Z,127.72
2018-12-17T17:43:34.187Z,95.47
2018-12-17T17:46:08.249Z,85.28
2018-12-17T17:48:38.915Z,104.53
2018-12-17T17:51:09.716Z,98.77
2018-12-17T17:53:40.773Z,82.07
2018-12-17T17:56:11.437Z,91.17
2018-12-17T17:58:42.242Z,92.10
2018-12-17T18:01:12.993Z,107.03
2018-12-17T18:03:43.694Z,94.10
2018-12-17T18:06:16.424Z,82.80
2018-12-17T18:08:47.179Z,81.87
2018-12-17T18:11:18.103Z,86.53
2018-12-17T18:13:48.733Z,88.87
2018-12-17T18:16:19.564Z,84.87
2018-12-17T18:18:50.212Z,95.37
2018-12-17T18:21:20.820Z,92.77
2018-12-17T18:23:54.821Z,92.57
2018-12-17T18:26:31.229Z,88.60
2018-12-17T18:29:09.684Z,96.30
2018-12-17T18:34:31.478Z,100.58
2018-12-17T18:37:07.337Z,97.20
2018-12-17T18:39:41.549Z,131.23
2018-12-17T18:42:15.588Z,127.77
2018-12-17T18:44:47.999Z,106.07
2018-12-17T18:47:25.837Z,118.13
2018-12-17T18:50:06.314Z,113.10
2018-12-17T18:52:42.342Z,117.37
2018-12-17T18:55:20.626Z,123.37
2018-12-17T18:57:57.575Z,119.87
2018-12-17T19:00:33.095Z,130.43
2018-12-17T19:03:11.232Z,152.77
2018-12-17T19:05:49.270Z,136.57
2018-12-17T19:08:24.718Z,127.83
2018-12-17T19:11:04.414Z,125.17
2018-12-17T19:13:43.032Z,116.20
2018-12-17T19:16:17.714Z,110.03
2018-12-17T19:18:50.929Z,103.17
2018-12-17T19:21:47.084Z,114.90
2018-12-17T19:24:25.583Z,104.37
2018-12-17T19:26:56.712Z,104.23
2018-12-17T19:29:29.062Z,99.27
2018-12-17T19:32:00.290Z,112.97
2018-12-17T19:34:39.829Z,122.27
2018-12-17T19:37:11.547Z,111.37
2018-12-17T19:39:43.084Z,102.73
2018-12-17T19:42:14.933Z,108.20
2018-12-17T19:44:49.987Z,120.93
2018-12-17T19:47:26.866Z,127.10
2018-12-17T19:50:02.202Z,118.47
2018-12-17T19:52:35.366Z,110.37
2018-12-17T19:55:07.769Z,118.30
2018-12-17T19:57:41.809Z,117.80
2018-12-17T20:00:17.436Z,120.67
2018-12-17T20:02:53.156Z,144.13
2018-12-17T20:05:29.053Z,143.40
2018-12-17T20:08:12.149Z,145.80
2018-12-17T20:10:53.698Z,124.60
2018-12-17T20:13:27.052Z,152.87
2018-12-17T20:16:06.466Z,130.27
2018-12-17T20:18:43.232Z,134.53
2018-12-17T20:21:16.214Z,129.83
2018-12-17T20:23:48.900Z,128.27
2018-12-17T20:26:22.547Z,116.40
2018-12-17T20:28:55.086Z,153.60
2018-12-17T20:31:27.950Z,157.37
2018-12-17T20:34:06.898Z,149.27
2018-12-17T20:36:39.674Z,148.37
2018-12-17T20:39:16.201Z,148.80
2018-12-17T20:41:48.960Z,150.67
2018-12-17T20:44:27.853Z,139.90
2018-12-17T20:47:00.547Z,168.23
2018-12-17T20:49:37.084Z,183.00
2018-12-17T20:52:14.076Z,255.70
2018-12-17T20:54:48.083Z,198.17
2018-12-17T20:57:20.699Z,148.93
2018-12-17T20:59:51.889Z,191.97
2018-12-17T21:02:24.172Z,142.57
2018-12-17T21:04:55.837Z,128.73
2018-12-17T21:07:29.095Z,126.53
2018-12-17T21:09:59.943Z,125.17
2018-12-17T21:12:36.410Z,135.40
2018-12-17T21:15:08.477Z,140.30
2018-12-17T21:17:40.064Z,137.63
2018-12-17T21:20:14.873Z,130.80
2018-12-17T21:22:55.861Z,97.00
2018-12-17T21:25:29.788Z,80.00
2018-12-17T21:28:06.727Z,100.53
2018-12-17T21:30:39.012Z,116.83
2018-12-17T21:33:12.564Z,108.50
2018-12-17T21:35:46.237Z,106.10
2018-12-17T21:38:24.038Z,103.03
2018-12-17T21:40:57.615Z,109.73
2018-12-17T21:43:35.902Z,129.47
2018-12-17T21:46:09.093Z,129.23
2018-12-17T21:48:46.437Z,129.37
2018-12-17T21:51:21.018Z,145.77
2018-12-17T21:53:55.516Z,125.83
2018-12-17T21:56:30.553Z,114.93
2018-12-17T21:59:06.390Z,133.93
2018-12-17T22:01:38.984Z,124.20
2018-12-17T22:04:10.282Z,116.30
2018-12-17T22:06:41.578Z,121.63
2018-12-17T22:09:12.712Z,111.27
2018-12-17T22:11:44.558Z,119.13
2018-12-17T22:14:22.185Z,112.47
2018-12-17T22:16:53.424Z,128.87
2018-12-17T22:19:24.444Z,129.87
2018-12-17T22:21:56.180Z,137.13
2018-12-17T22:24:30.725Z,108.27
2018-12-17T22:27:03.416Z,106.40
2018-12-17T22:29:34.472Z,109.90
2018-12-17T22:32:05.576Z,103.77
2018-12-17T22:34:37.991Z,103.03
2018-12-17T22:37:08.722Z,105.67
2018-12-17T22:39:39.833Z,93.60
2018-12-17T22:42:11.297Z,102.87
2018-12-17T22:44:43.157Z,110.53
2018-12-17T22:47:13.883Z,105.93
2018-12-17T22:49:46.627Z,101.30
2018-12-17T22:52:18.241Z,118.57
2018-12-17T22:54:49.188Z,107.73
2018-12-17T22:57:20.434Z,112.67
2018-12-17T22:59:52.094Z,118.50
2018-12-17T23:02:23.949Z,111.47
2018-12-17T23:05:01.457Z,94.70
2018-12-17T23:07:37.953Z,101.20
2018-12-17T23:10:20.784Z,105.37
2018-12-17T23:13:04.605Z,105.77
2018-12-17T23:15:46.702Z,103.63
2018-12-17T23:18:17.437Z,96.80
2018-12-17T23:20:50.448Z,105.07
2018-12-17T23:23:28.591Z,94.40
2018-12-17T23:26:04.365Z,104.20
2018-12-17T23:28:35.422Z,115.63
2018-12-17T23:31:06.820Z,104.00
2018-12-17T23:33:39.747Z,93.03
2018-12-17T23:36:11.256Z,82.67
2018-12-17T23:38:42.426Z,92.43
2018-12-17T23:41:16.340Z,83.90
2018-12-17T23:43:50.556Z,94.80
2018-12-17T23:46:23.784Z,98.30
2018-12-17T23:48:54.913Z,94.67
2018-12-17T23:51:28.273Z,97.40
2018-12-17T23:53:59.805Z,101.67
2018-12-17T23:56:30.959Z,116.50
2018-12-17T23:59:03.531Z,109.53
